Bettina K — PBEW — position and weather

sailwx.info

Track history (hours):
 
Tides and Currents Weather Stations Pressure Air Temp Water Temp Dewpoint Dewpoint Depression Visibility Wind Speed Wind Dir Waves Ship Positions

Bettina K

Last reported at 2015-Jul-30 21:27 UTC. Time now 2015-Jul-31 19:23 UTC.
Position N 57°46' W 002°05'.

Length 82 m; draft 3.5 m.

Type: Cargo ship. MMSI: 244730469.

Date/timePositionNaut miles runAvg speedWind from/ knotsBaromVisibWave heightAir tempDewpointWater temp
2015-Jul-30 21:27N 57°46' W 002°05'5 5.0
2015-Jul-30 20:33N 57°47' W 001°57'5 4.8
2015-Jul-30 19:32N 57°46' W 001°48'5 5.6
2015-Jul-30 18:33N 57°45' W 001°38'  
2015-Jul-28 11:17N 54°27' E 006°56'4 5.7
2015-Jul-28 10:32N 54°25' E 007°02'7 7.6
2015-Jul-28 09:33N 54°20' E 007°12'6 6.4
2015-Jul-28 08:33N 54°17' E 007°21'6 6.0
2015-Jul-28 07:33N 54°12' E 007°28'6 5.9
2015-Jul-28 06:33N 54°07' E 007°32'5 5.2
2015-Jul-28 05:33N 54°02' E 007°37'4 4.3
2015-Jul-28 04:33N 53°59' E 007°40'5 5.0
2015-Jul-28 03:33N 53°54' E 007°45'5 5.2
2015-Jul-28 02:33N 53°52' E 007°53'8 8.4
2015-Jul-28 01:33N 53°50' E 008°06'1110.9
2015-Jul-28 00:33N 53°42' E 008°20'1212.0
2015-Jul-27 23:33N 53°33' E 008°33'1110.8
2015-Jul-27 22:33N 53°23' E 008°30'1110.8
2015-Jul-27 21:33N 53°12' E 008°31'7 6.4
2015-Jul-27 20:32N 53°07' E 008°39'0 0.0
2015-Jul-27 19:32N 53°07' E 008°39'0 0.0
2015-Jul-27 18:32N 53°07' E 008°39'0 0.0
2015-Jul-27 17:32N 53°07' E 008°39'0 0.0
2015-Jul-27 16:32N 53°07' E 008°39'0 0.0
2015-Jul-27 15:32N 53°07' E 008°39'0 0.0
2015-Jul-27 14:32N 53°07' E 008°39'0 0.0
2015-Jul-27 13:32N 53°07' E 008°39'0 0.0
2015-Jul-27 12:32N 53°07' E 008°39'0 0.0
2015-Jul-27 11:32N 53°07' E 008°39'0 0.0
2015-Jul-27 10:32N 53°07' E 008°39'0 0.0
2015-Jul-27 09:32N 53°07' E 008°39'0 0.0
2015-Jul-27 08:32N 53°07' E 008°39'0 0.0
2015-Jul-27 07:32N 53°07' E 008°39'0 0.0
2015-Jul-27 06:29N 53°07' E 008°39'0 0.0
2015-Jul-27 05:32N 53°07' E 008°39'0 0.0
2015-Jul-27 04:32N 53°07' E 008°39'0 0.0
2015-Jul-27 03:32N 53°07' E 008°39'0 0.0
2015-Jul-27 02:32N 53°07' E 008°39'0 0.0
2015-Jul-27 01:32N 53°07' E 008°39'0 0.0
2015-Jul-27 00:20N 53°07' E 008°39'0 0.0
2015-Jul-26 23:32N 53°07' E 008°39'0 0.0
2015-Jul-26 22:32N 53°07' E 008°39'0 0.0
2015-Jul-26 21:32N 53°07' E 008°39'0 0.0
2015-Jul-26 20:32N 53°07' E 008°39'0 0.0
2015-Jul-26 19:29N 53°07' E 008°39'0 0.0
2015-Jul-26 18:26N 53°07' E 008°39'0 0.0
2015-Jul-26 17:32N 53°07' E 008°39'0 0.0
2015-Jul-26 16:32N 53°07' E 008°39'0 0.0
2015-Jul-26 15:32N 53°07' E 008°39'0 0.0
2015-Jul-26 14:32N 53°07' E 008°39'0 0.0
2015-Jul-26 13:32N 53°07' E 008°39'0 0.0
2015-Jul-26 12:32N 53°07' E 008°39'0 0.0
2015-Jul-26 11:32N 53°07' E 008°39'0 0.0
2015-Jul-26 10:32N 53°07' E 008°39'0 0.0
2015-Jul-26 09:32N 53°07' E 008°39'0 0.0
2015-Jul-26 08:20N 53°07' E 008°39'0 0.0
2015-Jul-26 07:23N 53°07' E 008°39'0 0.0
2015-Jul-26 06:32N 53°07' E 008°39'0 0.0
2015-Jul-26 05:32N 53°07' E 008°39'0 0.0
2015-Jul-26 04:32N 53°07' E 008°39'0 0.0
2015-Jul-26 03:32N 53°07' E 008°39'0 0.0
2015-Jul-26 02:32N 53°07' E 008°39'0 0.0
2015-Jul-26 01:32N 53°07' E 008°39'0 0.0
2015-Jul-26 00:32N 53°07' E 008°39'0 0.0
2015-Jul-25 23:32N 53°07' E 008°39'0 0.0
2015-Jul-25 22:32N 53°07' E 008°39'0 0.0
2015-Jul-25 21:32N 53°07' E 008°39'0 0.0
2015-Jul-25 20:32N 53°07' E 008°39'0 0.0
2015-Jul-25 19:32N 53°07' E 008°39'0 0.0
2015-Jul-25 18:32N 53°07' E 008°39'0 0.3
2015-Jul-25 17:34N 53°08' E 008°39'9 8.2
2015-Jul-25 16:31N 53°14' E 008°29'1111.4
2015-Jul-25 15:33N 53°25' E 008°30'10 9.6
2015-Jul-25 14:33N 53°34' E 008°32'10 9.5
2015-Jul-25 13:33N 53°41' E 008°21'1111.3
2015-Jul-25 12:33N 53°49' E 008°07'1110.7
2015-Jul-25 11:33N 53°52' E 007°50'10 9.6
2015-Jul-25 10:33N 53°59' E 007°37'9 8.6
2015-Jul-25 09:33N 54°06' E 007°30'8 8.5
2015-Jul-25 08:33N 54°13' E 007°23'9 9.0
2015-Jul-25 07:33N 54°20' E 007°12'354 8.2
2015-Jul-23 12:33N 57°38' W 001°32'9 9.2
2015-Jul-23 11:33N 57°43' W 001°47'10 9.6
2015-Jul-23 10:33N 57°46' W 002°04'  
Track history (hours):
 
Tides and Currents Weather Stations Pressure Air Temp Water Temp Dewpoint Dewpoint Depression Visibility Wind Speed Wind Dir Waves Ship Positions

Bettina K

Last reported at 2015-Jul-30 21:27 UTC. Time now 2015-Jul-31 19:23 UTC.
Position N 57°46' W 002°05'.

Length 82 m; draft 3.5 m.

Type: Cargo ship. MMSI: 244730469.

Date/timePositionNaut miles runAvg speedWind from/ knotsBaromVisibWave heightAir tempDewpointWater temp
2015-Jul-30 21:27N 57°46' W 002°05'5 5.0
2015-Jul-30 20:33N 57°47' W 001°57'5 4.8
2015-Jul-30 19:32N 57°46' W 001°48'5 5.6
2015-Jul-30 18:33N 57°45' W 001°38'  
2015-Jul-28 11:17N 54°27' E 006°56'4 5.7
2015-Jul-28 10:32N 54°25' E 007°02'7 7.6
2015-Jul-28 09:33N 54°20' E 007°12'6 6.4
2015-Jul-28 08:33N 54°17' E 007°21'6 6.0
2015-Jul-28 07:33N 54°12' E 007°28'6 5.9
2015-Jul-28 06:33N 54°07' E 007°32'5 5.2
2015-Jul-28 05:33N 54°02' E 007°37'4 4.3
2015-Jul-28 04:33N 53°59' E 007°40'5 5.0
2015-Jul-28 03:33N 53°54' E 007°45'5 5.2
2015-Jul-28 02:33N 53°52' E 007°53'8 8.4
2015-Jul-28 01:33N 53°50' E 008°06'1110.9
2015-Jul-28 00:33N 53°42' E 008°20'1212.0
2015-Jul-27 23:33N 53°33' E 008°33'1110.8
2015-Jul-27 22:33N 53°23' E 008°30'1110.8
2015-Jul-27 21:33N 53°12' E 008°31'7 6.4
2015-Jul-27 20:32N 53°07' E 008°39'0 0.0
2015-Jul-27 19:32N 53°07' E 008°39'0 0.0
2015-Jul-27 18:32N 53°07' E 008°39'0 0.0
2015-Jul-27 17:32N 53°07' E 008°39'0 0.0
2015-Jul-27 16:32N 53°07' E 008°39'0 0.0
2015-Jul-27 15:32N 53°07' E 008°39'0 0.0
2015-Jul-27 14:32N 53°07' E 008°39'0 0.0
2015-Jul-27 13:32N 53°07' E 008°39'0 0.0
2015-Jul-27 12:32N 53°07' E 008°39'0 0.0
2015-Jul-27 11:32N 53°07' E 008°39'0 0.0
2015-Jul-27 10:32N 53°07' E 008°39'0 0.0
2015-Jul-27 09:32N 53°07' E 008°39'0 0.0
2015-Jul-27 08:32N 53°07' E 008°39'0 0.0
2015-Jul-27 07:32N 53°07' E 008°39'0 0.0
2015-Jul-27 06:29N 53°07' E 008°39'0 0.0
2015-Jul-27 05:32N 53°07' E 008°39'0 0.0
2015-Jul-27 04:32N 53°07' E 008°39'0 0.0
2015-Jul-27 03:32N 53°07' E 008°39'0 0.0
2015-Jul-27 02:32N 53°07' E 008°39'0 0.0
2015-Jul-27 01:32N 53°07' E 008°39'0 0.0
2015-Jul-27 00:20N 53°07' E 008°39'0 0.0
2015-Jul-26 23:32N 53°07' E 008°39'0 0.0
2015-Jul-26 22:32N 53°07' E 008°39'0 0.0
2015-Jul-26 21:32N 53°07' E 008°39'0 0.0
2015-Jul-26 20:32N 53°07' E 008°39'0 0.0
2015-Jul-26 19:29N 53°07' E 008°39'0 0.0
2015-Jul-26 18:26N 53°07' E 008°39'0 0.0
2015-Jul-26 17:32N 53°07' E 008°39'0 0.0
2015-Jul-26 16:32N 53°07' E 008°39'0 0.0
2015-Jul-26 15:32N 53°07' E 008°39'0 0.0
2015-Jul-26 14:32N 53°07' E 008°39'0 0.0
2015-Jul-26 13:32N 53°07' E 008°39'0 0.0
2015-Jul-26 12:32N 53°07' E 008°39'0 0.0
2015-Jul-26 11:32N 53°07' E 008°39'0 0.0
2015-Jul-26 10:32N 53°07' E 008°39'0 0.0
2015-Jul-26 09:32N 53°07' E 008°39'0 0.0
2015-Jul-26 08:20N 53°07' E 008°39'0 0.0
2015-Jul-26 07:23N 53°07' E 008°39'0 0.0
2015-Jul-26 06:32N 53°07' E 008°39'0 0.0
2015-Jul-26 05:32N 53°07' E 008°39'0 0.0
2015-Jul-26 04:32N 53°07' E 008°39'0 0.0
2015-Jul-26 03:32N 53°07' E 008°39'0 0.0
2015-Jul-26 02:32N 53°07' E 008°39'0 0.0
2015-Jul-26 01:32N 53°07' E 008°39'0 0.0
2015-Jul-26 00:32N 53°07' E 008°39'0 0.0
2015-Jul-25 23:32N 53°07' E 008°39'0 0.0
2015-Jul-25 22:32N 53°07' E 008°39'0 0.0
2015-Jul-25 21:32N 53°07' E 008°39'0 0.0
2015-Jul-25 20:32N 53°07' E 008°39'0 0.0
2015-Jul-25 19:32N 53°07' E 008°39'0 0.0
2015-Jul-25 18:32N 53°07' E 008°39'0 0.3
2015-Jul-25 17:34N 53°08' E 008°39'9 8.2
2015-Jul-25 16:31N 53°14' E 008°29'1111.4
2015-Jul-25 15:33N 53°25' E 008°30'10 9.6
2015-Jul-25 14:33N 53°34' E 008°32'10 9.5
2015-Jul-25 13:33N 53°41' E 008°21'1111.3
2015-Jul-25 12:33N 53°49' E 008°07'1110.7
2015-Jul-25 11:33N 53°52' E 007°50'10 9.6
2015-Jul-25 10:33N 53°59' E 007°37'9 8.6
2015-Jul-25 09:33N 54°06' E 007°30'8 8.5
2015-Jul-25 08:33N 54°13' E 007°23'9 9.0
2015-Jul-25 07:33N 54°20' E 007°12'354 8.2
2015-Jul-23 12:33N 57°38' W 001°32'9 9.2
2015-Jul-23 11:33N 57°43' W 001°47'10 9.6
2015-Jul-23 10:33N 57°46' W 002°04'  

Dump ship's entire track history